sensor_id;sensor_type;location;lat;lon;timestamp;P1;durP1;ratioP1;P2;durP2;ratioP2
2011;SDS011;1009;51.436;6.972;2024-01-10T00:01:47;10.57;;;4.70;;
2011;SDS011;1009;51.436;6.972;2024-01-10T00:04:14;11.10;;;5.20;;
2011;SDS011;1009;51.436;6.972;2024-01-10T00:06:41;11.77;;;5.97;;
2011;SDS011;1009;51.436;6.972;2024-01-10T00:09:08;8.10;;;5.83;;
2011;SDS011;1009;51.436;6.972;2024-01-10T00:11:35;9.80;;;5.13;;
2011;SDS011;1009;51.436;6.972;2024-01-10T00:14:03;8.33;;;5.50;;
2011;SDS011;1009;51.436;6.972;2024-01-10T00:16:31;8.53;;;5.27;;
2011;SDS011;1009;51.436;6.972;2024-01-10T00:18:57;7.77;;;5.67;;
2011;SDS011;1009;51.436;6.972;2024-01-10T00:21:24;9.40;;;4.90;;
2011;SDS011;1009;51.436;6.972;2024-01-10T00:23:51;9.87;;;5.67;;
2011;SDS011;1009;51.436;6.972;2024-01-10T00:26:18;9.13;;;5.27;;
2011;SDS011;1009;51.436;6.972;2024-01-10T00:28:44;9.13;;;5.83;;
2011;SDS011;1009;51.436;6.972;2024-01-10T00:31:13;7.67;;;4.40;;
2011;SDS011;1009;51.436;6.972;2024-01-10T00:33:39;10.57;;;5.87;;
2011;SDS011;1009;51.436;6.972;2024-01-10T00:36:07;10.20;;;5.17;;
2011;SDS011;1009;51.436;6.972;2024-01-10T00:38:34;9.40;;;6.20;;
2011;SDS011;1009;51.436;6.972;2024-01-10T00:41:01;10.30;;;4.83;;
2011;SDS011;1009;51.436;6.972;2024-01-10T00:43:28;9.90;;;5.73;;
2011;SDS011;1009;51.436;6.972;2024-01-10T00:45:54;9.47;;;5.47;;
2011;SDS011;1009;51.436;6.972;2024-01-10T00:48:23;10.30;;;5.77;;
2011;SDS011;1009;51.436;6.972;2024-01-10T00:50:49;6.53;;;4.80;;
2011;SDS011;1009;51.436;6.972;2024-01-10T00:53:16;6.57;;;5.27;;
2011;SDS011;1009;51.436;6.972;2024-01-10T00:55:43;11.00;;;5.30;;
2011;SDS011;1009;51.436;6.972;2024-01-10T00:58:09;8.33;;;4.93;;
2011;SDS011;1009;51.436;6.972;2024-01-10T01:00:36;8.93;;;5.30;;
2011;SDS011;1009;51.436;6.972;2024-01-10T01:03:03;6.27;;;3.50;;
2011;SDS011;1009;51.436;6.972;2024-01-10T01:05:31;10.67;;;5.80;;
2011;SDS011;1009;51.436;6.972;2024-01-10T01:07:58;9.37;;;5.83;;
2011;SDS011;1009;51.436;6.972;2024-01-10T01:10:25;7.93;;;5.40;;
2011;SDS011;1009;51.436;6.972;2024-01-10T01:12:51;8.90;;;4.50;;
2011;SDS011;1009;51.436;6.972;2024-01-10T01:15:18;13.80;;;6.40;;
2011;SDS011;1009;51.436;6.972;2024-01-10T01:17:45;9.10;;;4.97;;
2011;SDS011;1009;51.436;6.972;2024-01-10T01:20:12;7.20;;;4.60;;
2011;SDS011;1009;51.436;6.972;2024-01-10T01:22:40;6.93;;;5.73;;
2011;SDS011;1009;51.436;6.972;2024-01-10T01:25:07;6.67;;;4.60;;
2011;SDS011;1009;51.436;6.972;2024-01-10T01:27:34;10.37;;;5.80;;
2011;SDS011;1009;51.436;6.972;2024-01-10T01:30:00;9.73;;;5.57;;
2011;SDS011;1009;51.436;6.972;2024-01-10T01:32:28;8.73;;;5.20;;
2011;SDS011;1009;51.436;6.972;2024-01-10T01:34:55;11.67;;;5.93;;
2011;SDS011;1009;51.436;6.972;2024-01-10T01:37:22;6.93;;;4.60;;
2011;SDS011;1009;51.436;6.972;2024-01-10T01:39:50;11.97;;;5.70;;
2011;SDS011;1009;51.436;6.972;2024-01-10T01:42:16;8.03;;;4.50;;
2011;SDS011;1009;51.436;6.972;2024-01-10T01:44:43;9.37;;;4.90;;
2011;SDS011;1009;51.436;6.972;2024-01-10T01:47:10;10.47;;;5.20;;
2011;SDS011;1009;51.436;6.972;2024-01-10T01:49:37;6.83;;;5.13;;
2011;SDS011;1009;51.436;6.972;2024-01-10T01:52:04;8.60;;;4.80;;
2011;SDS011;1009;51.436;6.972;2024-01-10T01:54:32;8.20;;;4.60;;
2011;SDS011;1009;51.436;6.972;2024-01-10T01:57:00;8.87;;;5.10;;
2011;SDS011;1009;51.436;6.972;2024-01-10T01:59:27;9.13;;;5.00;;
2011;SDS011;1009;51.436;6.972;2024-01-10T02:01:54;8.77;;;4.83;;
2011;SDS011;1009;51.436;6.972;2024-01-10T02:04:21;9.60;;;5.33;;
2011;SDS011;1009;51.436;6.972;2024-01-10T02:06:49;10.20;;;5.27;;
2011;SDS011;1009;51.436;6.972;2024-01-10T02:09:16;9.07;;;5.37;;
2011;SDS011;1009;51.436;6.972;2024-01-10T02:11:43;13.97;;;5.30;;
2011;SDS011;1009;51.436;6.972;2024-01-10T02:14:11;12.93;;;5.70;;
2011;SDS011;1009;51.436;6.972;2024-01-10T02:16:38;5.57;;;3.80;;
2011;SDS011;1009;51.436;6.972;2024-01-10T02:19:17;10.70;;;4.60;;
2011;SDS011;1009;51.436;6.972;2024-01-10T02:21:44;8.90;;;4.20;;
2011;SDS011;1009;51.436;6.972;2024-01-10T02:24:11;9.83;;;5.43;;
2011;SDS011;1009;51.436;6.972;2024-01-10T02:26:39;8.40;;;5.07;;
2011;SDS011;1009;51.436;6.972;2024-01-10T02:29:06;8.57;;;5.07;;
2011;SDS011;1009;51.436;6.972;2024-01-10T02:31:33;10.73;;;5.67;;
2011;SDS011;1009;51.436;6.972;2024-01-10T02:33:59;12.03;;;6.27;;
2011;SDS011;1009;51.436;6.972;2024-01-10T02:36:26;9.50;;;5.13;;
2011;SDS011;1009;51.436;6.972;2024-01-10T02:38:53;8.80;;;5.00;;
2011;SDS011;1009;51.436;6.972;2024-01-10T02:41:19;10.93;;;6.33;;
2011;SDS011;1009;51.436;6.972;2024-01-10T02:43:47;9.97;;;5.10;;
2011;SDS011;1009;51.436;6.972;2024-01-10T02:46:14;12.60;;;5.80;;
2011;SDS011;1009;51.436;6.972;2024-01-10T02:48:41;8.03;;;4.53;;
2011;SDS011;1009;51.436;6.972;2024-01-10T02:51:08;13.27;;;6.07;;
2011;SDS011;1009;51.436;6.972;2024-01-10T02:53:34;9.33;;;5.67;;
2011;SDS011;1009;51.436;6.972;2024-01-10T02:56:01;8.33;;;5.50;;
2011;SDS011;1009;51.436;6.972;2024-01-10T02:58:28;8.87;;;5.33;;
2011;SDS011;1009;51.436;6.972;2024-01-10T03:00:56;10.70;;;6.00;;
2011;SDS011;1009;51.436;6.972;2024-01-10T03:03:23;10.40;;;5.50;;
2011;SDS011;1009;51.436;6.972;2024-01-10T03:05:50;8.97;;;5.90;;
2011;SDS011;1009;51.436;6.972;2024-01-10T03:08:17;10.80;;;5.80;;
2011;SDS011;1009;51.436;6.972;2024-01-10T03:10:44;9.57;;;6.00;;
2011;SDS011;1009;51.436;6.972;2024-01-10T03:13:10;10.03;;;5.40;;
2011;SDS011;1009;51.436;6.972;2024-01-10T03:15:37;9.33;;;6.03;;
2011;SDS011;1009;51.436;6.972;2024-01-10T03:18:06;9.00;;;6.20;;
2011;SDS011;1009;51.436;6.972;2024-01-10T03:20:32;7.63;;;5.30;;
2011;SDS011;1009;51.436;6.972;2024-01-10T03:22:59;12.77;;;6.30;;
2011;SDS011;1009;51.436;6.972;2024-01-10T03:25:26;7.97;;;5.67;;
2011;SDS011;1009;51.436;6.972;2024-01-10T03:27:52;11.83;;;6.40;;
2011;SDS011;1009;51.436;6.972;2024-01-10T03:30:19;7.13;;;5.10;;
2011;SDS011;1009;51.436;6.972;2024-01-10T03:32:49;10.00;;;5.20;;
2011;SDS011;1009;51.436;6.972;2024-01-10T03:35:17;10.70;;;4.73;;
2011;SDS011;1009;51.436;6.972;2024-01-10T03:37:43;12.80;;;5.33;;
2011;SDS011;1009;51.436;6.972;2024-01-10T03:40:10;13.97;;;5.57;;
2011;SDS011;1009;51.436;6.972;2024-01-10T03:42:38;11.40;;;6.33;;
2011;SDS011;1009;51.436;6.972;2024-01-10T03:45:05;8.70;;;6.23;;
2011;SDS011;1009;51.436;6.972;2024-01-10T03:47:32;8.90;;;5.40;;
2011;SDS011;1009;51.436;6.972;2024-01-10T03:49:58;9.30;;;5.43;;
2011;SDS011;1009;51.436;6.972;2024-01-10T03:52:26;10.17;;;5.97;;
2011;SDS011;1009;51.436;6.972;2024-01-10T03:54:53;6.30;;;4.37;;
2011;SDS011;1009;51.436;6.972;2024-01-10T03:57:20;12.30;;;6.10;;
2011;SDS011;1009;51.436;6.972;2024-01-10T03:59:46;11.80;;;6.00;;
2011;SDS011;1009;51.436;6.972;2024-01-10T04:02:12;9.60;;;4.87;;
2011;SDS011;1009;51.436;6.972;2024-01-10T04:04:39;14.03;;;6.33;;
2011;SDS011;1009;51.436;6.972;2024-01-10T04:07:06;7.10;;;4.60;;
2011;SDS011;1009;51.436;6.972;2024-01-10T04:09:35;17.80;;;6.00;;
2011;SDS011;1009;51.436;6.972;2024-01-10T04:12:01;6.43;;;4.93;;
2011;SDS011;1009;51.436;6.972;2024-01-10T04:14:28;8.33;;;5.03;;
2011;SDS011;1009;51.436;6.972;2024-01-10T04:16:55;9.23;;;4.53;;
2011;SDS011;1009;51.436;6.972;2024-01-10T04:19:22;10.20;;;4.67;;
2011;SDS011;1009;51.436;6.972;2024-01-10T04:21:48;6.47;;;4.80;;
2011;SDS011;1009;51.436;6.972;2024-01-10T04:24:15;9.80;;;5.43;;
2011;SDS011;1009;51.436;6.972;2024-01-10T04:26:43;11.90;;;5.63;;
2011;SDS011;1009;51.436;6.972;2024-01-10T04:29:10;10.63;;;5.57;;
2011;SDS011;1009;51.436;6.972;2024-01-10T04:31:37;10.20;;;5.37;;
2011;SDS011;1009;51.436;6.972;2024-01-10T04:34:04;10.33;;;5.33;;
2011;SDS011;1009;51.436;6.972;2024-01-10T04:36:31;10.47;;;6.00;;
2011;SDS011;1009;51.436;6.972;2024-01-10T04:38:57;12.07;;;6.03;;
2011;SDS011;1009;51.436;6.972;2024-01-10T04:41:24;9.47;;;5.40;;
2011;SDS011;1009;51.436;6.972;2024-01-10T04:43:52;9.30;;;4.70;;
2011;SDS011;1009;51.436;6.972;2024-01-10T04:46:19;7.97;;;5.30;;
2011;SDS011;1009;51.436;6.972;2024-01-10T04:48:46;11.10;;;6.40;;
2011;SDS011;1009;51.436;6.972;2024-01-10T04:51:12;19.33;;;6.60;;
2011;SDS011;1009;51.436;6.972;2024-01-10T04:53:40;10.47;;;6.77;;
2011;SDS011;1009;51.436;6.972;2024-01-10T04:56:07;14.87;;;6.13;;
2011;SDS011;1009;51.436;6.972;2024-01-10T04:58:33;10.73;;;6.13;;
2011;SDS011;1009;51.436;6.972;2024-01-10T05:01:03;9.93;;;5.40;;
2011;SDS011;1009;51.436;6.972;2024-01-10T05:03:31;7.37;;;4.60;;
2011;SDS011;1009;51.436;6.972;2024-01-10T05:05:57;7.60;;;4.73;;
2011;SDS011;1009;51.436;6.972;2024-01-10T05:08:24;10.43;;;6.30;;
2011;SDS011;1009;51.436;6.972;2024-01-10T05:10:51;10.93;;;6.30;;
2011;SDS011;1009;51.436;6.972;2024-01-10T05:13:17;6.83;;;5.10;;
2011;SDS011;1009;51.436;6.972;2024-01-10T05:15:44;11.70;;;7.53;;
2011;SDS011;1009;51.436;6.972;2024-01-10T05:18:12;11.27;;;5.90;;
2011;SDS011;1009;51.436;6.972;2024-01-10T05:20:39;10.53;;;6.20;;
2011;SDS011;1009;51.436;6.972;2024-01-10T05:23:05;11.53;;;5.73;;
2011;SDS011;1009;51.436;6.972;2024-01-10T05:25:32;12.93;;;7.03;;
2011;SDS011;1009;51.436;6.972;2024-01-10T05:27:59;7.50;;;5.97;;
2011;SDS011;1009;51.436;6.972;2024-01-10T05:30:26;17.70;;;6.90;;
2011;SDS011;1009;51.436;6.972;2024-01-10T05:32:52;9.60;;;6.47;;
2011;SDS011;1009;51.436;6.972;2024-01-10T05:35:20;10.77;;;6.07;;
2011;SDS011;1009;51.436;6.972;2024-01-10T05:37:47;10.97;;;6.53;;
2011;SDS011;1009;51.436;6.972;2024-01-10T05:40:15;10.93;;;5.50;;
2011;SDS011;1009;51.436;6.972;2024-01-10T05:42:41;7.30;;;5.30;;
2011;SDS011;1009;51.436;6.972;2024-01-10T05:45:08;11.00;;;5.57;;
2011;SDS011;1009;51.436;6.972;2024-01-10T05:47:35;14.67;;;6.70;;
2011;SDS011;1009;51.436;6.972;2024-01-10T05:50:02;8.50;;;5.30;;
2011;SDS011;1009;51.436;6.972;2024-01-10T05:52:32;15.43;;;6.80;;
2011;SDS011;1009;51.436;6.972;2024-01-10T05:54:59;14.17;;;8.07;;
2011;SDS011;1009;51.436;6.972;2024-01-10T05:57:26;11.07;;;6.20;;
2011;SDS011;1009;51.436;6.972;2024-01-10T05:59:53;9.80;;;6.43;;
2011;SDS011;1009;51.436;6.972;2024-01-10T06:02:22;12.87;;;6.63;;
2011;SDS011;1009;51.436;6.972;2024-01-10T06:04:49;12.63;;;6.33;;
2011;SDS011;1009;51.436;6.972;2024-01-10T06:07:16;11.63;;;6.50;;
2011;SDS011;1009;51.436;6.972;2024-01-10T06:09:44;16.13;;;6.13;;
2011;SDS011;1009;51.436;6.972;2024-01-10T06:12:11;10.30;;;5.90;;
2011;SDS011;1009;51.436;6.972;2024-01-10T06:17:13;15.00;;;6.00;;
2011;SDS011;1009;51.436;6.972;2024-01-10T06:19:40;11.30;;;6.47;;
2011;SDS011;1009;51.436;6.972;2024-01-10T06:22:07;10.10;;;6.03;;
2011;SDS011;1009;51.436;6.972;2024-01-10T06:24:36;9.77;;;6.60;;
2011;SDS011;1009;51.436;6.972;2024-01-10T06:27:05;12.97;;;6.93;;
2011;SDS011;1009;51.436;6.972;2024-01-10T06:29:32;11.40;;;5.40;;
2011;SDS011;1009;51.436;6.972;2024-01-10T06:31:59;11.00;;;6.20;;
2011;SDS011;1009;51.436;6.972;2024-01-10T06:34:26;9.37;;;5.30;;
2011;SDS011;1009;51.436;6.972;2024-01-10T06:36:53;12.93;;;6.80;;
2011;SDS011;1009;51.436;6.972;2024-01-10T06:39:19;11.47;;;5.43;;
2011;SDS011;1009;51.436;6.972;2024-01-10T06:41:47;10.13;;;5.70;;
2011;SDS011;1009;51.436;6.972;2024-01-10T06:44:15;9.57;;;5.97;;
2011;SDS011;1009;51.436;6.972;2024-01-10T06:46:42;13.50;;;6.50;;
2011;SDS011;1009;51.436;6.972;2024-01-10T06:49:09;11.93;;;6.93;;
2011;SDS011;1009;51.436;6.972;2024-01-10T06:51:36;14.63;;;6.70;;
2011;SDS011;1009;51.436;6.972;2024-01-10T06:54:03;11.90;;;6.17;;
2011;SDS011;1009;51.436;6.972;2024-01-10T06:56:30;13.70;;;7.53;;
2011;SDS011;1009;51.436;6.972;2024-01-10T06:58:57;9.07;;;5.33;;
2011;SDS011;1009;51.436;6.972;2024-01-10T07:01:25;12.50;;;7.23;;
2011;SDS011;1009;51.436;6.972;2024-01-10T07:03:53;15.13;;;6.30;;
2011;SDS011;1009;51.436;6.972;2024-01-10T07:06:20;14.50;;;5.93;;
2011;SDS011;1009;51.436;6.972;2024-01-10T07:08:48;9.47;;;5.80;;
2011;SDS011;1009;51.436;6.972;2024-01-10T07:11:15;13.73;;;6.20;;
2011;SDS011;1009;51.436;6.972;2024-01-10T07:13:42;11.33;;;5.90;;
2011;SDS011;1009;51.436;6.972;2024-01-10T07:16:09;15.07;;;7.57;;
2011;SDS011;1009;51.436;6.972;2024-01-10T07:18:37;12.17;;;6.20;;
2011;SDS011;1009;51.436;6.972;2024-01-10T07:21:04;8.30;;;6.10;;
2011;SDS011;1009;51.436;6.972;2024-01-10T07:23:31;13.70;;;6.27;;
2011;SDS011;1009;51.436;6.972;2024-01-10T07:25:59;12.47;;;6.67;;
2011;SDS011;1009;51.436;6.972;2024-01-10T07:28:26;12.93;;;7.30;;
2011;SDS011;1009;51.436;6.972;2024-01-10T07:30:52;16.40;;;6.93;;
2011;SDS011;1009;51.436;6.972;2024-01-10T07:33:19;12.93;;;7.67;;
2011;SDS011;1009;51.436;6.972;2024-01-10T07:35:47;15.43;;;7.40;;
2011;SDS011;1009;51.436;6.972;2024-01-10T07:38:14;12.40;;;6.80;;
2011;SDS011;1009;51.436;6.972;2024-01-10T07:40:41;11.57;;;6.20;;
2011;SDS011;1009;51.436;6.972;2024-01-10T07:43:08;11.77;;;7.03;;
2011;SDS011;1009;51.436;6.972;2024-01-10T07:45:36;12.80;;;6.37;;
2011;SDS011;1009;51.436;6.972;2024-01-10T07:48:03;16.83;;;7.00;;
2011;SDS011;1009;51.436;6.972;2024-01-10T07:50:30;16.20;;;7.37;;
2011;SDS011;1009;51.436;6.972;2024-01-10T07:52:58;12.17;;;6.77;;
2011;SDS011;1009;51.436;6.972;2024-01-10T07:55:26;13.17;;;6.50;;
2011;SDS011;1009;51.436;6.972;2024-01-10T07:57:54;14.43;;;6.10;;
2011;SDS011;1009;51.436;6.972;2024-01-10T08:00:21;15.80;;;6.93;;
2011;SDS011;1009;51.436;6.972;2024-01-10T08:02:48;11.67;;;7.53;;
2011;SDS011;1009;51.436;6.972;2024-01-10T08:05:15;11.57;;;6.80;;
2011;SDS011;1009;51.436;6.972;2024-01-10T08:07:42;11.03;;;5.97;;
2011;SDS011;1009;51.436;6.972;2024-01-10T08:10:10;17.70;;;7.43;;
2011;SDS011;1009;51.436;6.972;2024-01-10T08:12:38;13.50;;;6.63;;
2011;SDS011;1009;51.436;6.972;2024-01-10T08:15:06;17.43;;;7.93;;
2011;SDS011;1009;51.436;6.972;2024-01-10T08:17:33;19.00;;;8.40;;
2011;SDS011;1009;51.436;6.972;2024-01-10T08:20:02;14.60;;;7.97;;
2011;SDS011;1009;51.436;6.972;2024-01-10T08:22:31;13.67;;;7.30;;
2011;SDS011;1009;51.436;6.972;2024-01-10T08:24:58;14.00;;;7.90;;
2011;SDS011;1009;51.436;6.972;2024-01-10T08:27:26;17.40;;;7.37;;
2011;SDS011;1009;51.436;6.972;2024-01-10T08:29:52;18.73;;;9.33;;
2011;SDS011;1009;51.436;6.972;2024-01-10T08:32:19;14.23;;;7.63;;
2011;SDS011;1009;51.436;6.972;2024-01-10T08:34:47;10.20;;;7.23;;
2011;SDS011;1009;51.436;6.972;2024-01-10T08:37:13;18.80;;;9.10;;
2011;SDS011;1009;51.436;6.972;2024-01-10T08:39:42;16.67;;;8.70;;
2011;SDS011;1009;51.436;6.972;2024-01-10T08:42:09;15.90;;;8.20;;
2011;SDS011;1009;51.436;6.972;2024-01-10T08:44:37;17.40;;;9.30;;
2011;SDS011;1009;51.436;6.972;2024-01-10T08:47:04;19.03;;;10.30;;
2011;SDS011;1009;51.436;6.972;2024-01-10T08:49:31;13.87;;;8.60;;
2011;SDS011;1009;51.436;6.972;2024-01-10T08:51:58;16.13;;;7.87;;
2011;SDS011;1009;51.436;6.972;2024-01-10T08:54:24;14.03;;;8.20;;
2011;SDS011;1009;51.436;6.972;2024-01-10T08:56:52;17.40;;;9.47;;
2011;SDS011;1009;51.436;6.972;2024-01-10T08:59:18;18.13;;;9.17;;
2011;SDS011;1009;51.436;6.972;2024-01-10T09:01:47;14.13;;;8.27;;
2011;SDS011;1009;51.436;6.972;2024-01-10T09:04:14;23.40;;;10.43;;
2011;SDS011;1009;51.436;6.972;2024-01-10T09:06:43;17.60;;;10.90;;
2011;SDS011;1009;51.436;6.972;2024-01-10T09:09:16;19.07;;;10.20;;
2011;SDS011;1009;51.436;6.972;2024-01-10T09:11:46;20.87;;;9.70;;
2011;SDS011;1009;51.436;6.972;2024-01-10T09:14:19;17.30;;;9.97;;
2011;SDS011;1009;51.436;6.972;2024-01-10T09:16:48;25.07;;;12.47;;
2011;SDS011;1009;51.436;6.972;2024-01-10T09:19:19;18.70;;;10.33;;
2011;SDS011;1009;51.436;6.972;2024-01-10T09:21:48;24.00;;;10.73;;
2011;SDS011;1009;51.436;6.972;2024-01-10T09:24:18;20.63;;;10.90;;
2011;SDS011;1009;51.436;6.972;2024-01-10T09:26:49;16.70;;;10.20;;
2011;SDS011;1009;51.436;6.972;2024-01-10T09:29:16;22.90;;;11.07;;
2011;SDS011;1009;51.436;6.972;2024-01-10T09:31:44;17.77;;;10.70;;
2011;SDS011;1009;51.436;6.972;2024-01-10T09:34:12;24.87;;;10.50;;
2011;SDS011;1009;51.436;6.972;2024-01-10T09:36:39;22.40;;;10.40;;
2011;SDS011;1009;51.436;6.972;2024-01-10T09:39:09;23.23;;;11.00;;
2011;SDS011;1009;51.436;6.972;2024-01-10T09:41:40;20.23;;;12.33;;
2011;SDS011;1009;51.436;6.972;2024-01-10T09:44:12;25.87;;;13.00;;
2011;SDS011;1009;51.436;6.972;2024-01-10T09:46:46;25.80;;;11.37;;
2011;SDS011;1009;51.436;6.972;2024-01-10T09:49:39;21.37;;;10.80;;
2011;SDS011;1009;51.436;6.972;2024-01-10T09:52:15;22.30;;;11.93;;
2011;SDS011;1009;51.436;6.972;2024-01-10T09:55:04;18.80;;;10.83;;
2011;SDS011;1009;51.436;6.972;2024-01-10T09:57:39;20.13;;;11.60;;
2011;SDS011;1009;51.436;6.972;2024-01-10T10:00:08;21.00;;;13.30;;
2011;SDS011;1009;51.436;6.972;2024-01-10T10:02:37;26.87;;;13.43;;
2011;SDS011;1009;51.436;6.972;2024-01-10T10:05:11;19.90;;;12.60;;
2011;SDS011;1009;51.436;6.972;2024-01-10T10:07:43;20.13;;;11.80;;
2011;SDS011;1009;51.436;6.972;2024-01-10T10:10:11;23.53;;;13.57;;
2011;SDS011;1009;51.436;6.972;2024-01-10T10:12:43;21.00;;;12.77;;
2011;SDS011;1009;51.436;6.972;2024-01-10T10:15:11;21.00;;;13.00;;
2011;SDS011;1009;51.436;6.972;2024-01-10T10:17:39;23.77;;;12.63;;
2011;SDS011;1009;51.436;6.972;2024-01-10T10:20:13;24.20;;;12.63;;
2011;SDS011;1009;51.436;6.972;2024-01-10T10:22:40;20.07;;;12.23;;
2011;SDS011;1009;51.436;6.972;2024-01-10T10:25:23;25.57;;;12.93;;
2011;SDS011;1009;51.436;6.972;2024-01-10T10:27:52;21.67;;;12.90;;
2011;SDS011;1009;51.436;6.972;2024-01-10T10:30:18;22.33;;;13.40;;
2011;SDS011;1009;51.436;6.972;2024-01-10T10:32:45;22.07;;;13.70;;
2011;SDS011;1009;51.436;6.972;2024-01-10T10:35:13;23.37;;;13.00;;
2011;SDS011;1009;51.436;6.972;2024-01-10T10:37:40;21.77;;;13.33;;
2011;SDS011;1009;51.436;6.972;2024-01-10T10:40:07;18.53;;;11.90;;
2011;SDS011;1009;51.436;6.972;2024-01-10T10:42:35;22.63;;;14.27;;
2011;SDS011;1009;51.436;6.972;2024-01-10T10:45:06;19.10;;;12.17;;
2011;SDS011;1009;51.436;6.972;2024-01-10T10:47:38;23.10;;;13.20;;
2011;SDS011;1009;51.436;6.972;2024-01-10T10:50:10;21.07;;;13.70;;
2011;SDS011;1009;51.436;6.972;2024-01-10T10:52:44;18.53;;;11.57;;
2011;SDS011;1009;51.436;6.972;2024-01-10T10:55:13;25.13;;;14.30;;
2011;SDS011;1009;51.436;6.972;2024-01-10T10:57:43;20.07;;;12.23;;
2011;SDS011;1009;51.436;6.972;2024-01-10T11:00:12;23.53;;;12.83;;
2011;SDS011;1009;51.436;6.972;2024-01-10T11:02:41;21.30;;;13.13;;
2011;SDS011;1009;51.436;6.972;2024-01-10T11:05:08;26.00;;;14.87;;
2011;SDS011;1009;51.436;6.972;2024-01-10T11:07:37;20.63;;;12.37;;
2011;SDS011;1009;51.436;6.972;2024-01-10T11:10:05;25.80;;;14.03;;
2011;SDS011;1009;51.436;6.972;2024-01-10T11:12:40;22.20;;;13.20;;
2011;SDS011;1009;51.436;6.972;2024-01-10T11:15:24;26.30;;;15.40;;
2011;SDS011;1009;51.436;6.972;2024-01-10T11:18:08;24.13;;;14.43;;
2011;SDS011;1009;51.436;6.972;2024-01-10T11:20:49;22.03;;;12.37;;
2011;SDS011;1009;51.436;6.972;2024-01-10T11:23:37;22.47;;;14.23;;
2011;SDS011;1009;51.436;6.972;2024-01-10T11:26:06;20.37;;;14.50;;
2011;SDS011;1009;51.436;6.972;2024-01-10T11:28:34;25.77;;;14.20;;
2011;SDS011;1009;51.436;6.972;2024-01-10T11:31:02;19.57;;;13.20;;
2011;SDS011;1009;51.436;6.972;2024-01-10T11:33:30;27.37;;;14.47;;
2011;SDS011;1009;51.436;6.972;2024-01-10T11:36:07;22.97;;;13.60;;
2011;SDS011;1009;51.436;6.972;2024-01-10T11:38:43;26.50;;;14.33;;
2011;SDS011;1009;51.436;6.972;2024-01-10T11:41:20;23.83;;;14.00;;
2011;SDS011;1009;51.436;6.972;2024-01-10T11:46:49;24.40;;;13.93;;
2011;SDS011;1009;51.436;6.972;2024-01-10T11:49:19;19.97;;;12.80;;
2011;SDS011;1009;51.436;6.972;2024-01-10T11:51:47;22.67;;;13.90;;
2011;SDS011;1009;51.436;6.972;2024-01-10T11:57:20;26.83;;;13.90;;
2011;SDS011;1009;51.436;6.972;2024-01-10T11:59:47;20.57;;;14.07;;
2011;SDS011;1009;51.436;6.972;2024-01-10T12:02:17;24.33;;;13.80;;
2011;SDS011;1009;51.436;6.972;2024-01-10T12:04:44;25.47;;;14.00;;
2011;SDS011;1009;51.436;6.972;2024-01-10T12:07:11;25.07;;;13.70;;
2011;SDS011;1009;51.436;6.972;2024-01-10T12:09:39;23.43;;;14.30;;
2011;SDS011;1009;51.436;6.972;2024-01-10T12:12:06;25.50;;;15.10;;
2011;SDS011;1009;51.436;6.972;2024-01-10T12:14:35;24.03;;;14.77;;
2011;SDS011;1009;51.436;6.972;2024-01-10T12:17:01;24.77;;;13.60;;
2011;SDS011;1009;51.436;6.972;2024-01-10T12:19:29;24.80;;;14.63;;
2011;SDS011;1009;51.436;6.972;2024-01-10T12:21:56;24.90;;;13.33;;
2011;SDS011;1009;51.436;6.972;2024-01-10T12:24:23;25.20;;;13.83;;
2011;SDS011;1009;51.436;6.972;2024-01-10T12:26:54;22.37;;;14.23;;
2011;SDS011;1009;51.436;6.972;2024-01-10T12:29:22;18.97;;;13.20;;
2011;SDS011;1009;51.436;6.972;2024-01-10T12:31:51;23.23;;;13.70;;
2011;SDS011;1009;51.436;6.972;2024-01-10T12:34:18;24.83;;;14.50;;
2011;SDS011;1009;51.436;6.972;2024-01-10T12:36:46;24.80;;;13.70;;
2011;SDS011;1009;51.436;6.972;2024-01-10T12:39:14;23.20;;;13.20;;
2011;SDS011;1009;51.436;6.972;2024-01-10T12:41:41;22.10;;;14.93;;
2011;SDS011;1009;51.436;6.972;2024-01-10T12:44:08;26.90;;;14.20;;
2011;SDS011;1009;51.436;6.972;2024-01-10T12:46:48;26.00;;;14.80;;
2011;SDS011;1009;51.436;6.972;2024-01-10T12:49:17;22.40;;;14.30;;
2011;SDS011;1009;51.436;6.972;2024-01-10T12:51:44;27.80;;;14.33;;
2011;SDS011;1009;51.436;6.972;2024-01-10T12:54:14;29.70;;;15.10;;
2011;SDS011;1009;51.436;6.972;2024-01-10T12:56:42;26.07;;;14.40;;
2011;SDS011;1009;51.436;6.972;2024-01-10T12:59:08;23.73;;;13.70;;
2011;SDS011;1009;51.436;6.972;2024-01-10T13:01:35;23.87;;;15.00;;
2011;SDS011;1009;51.436;6.972;2024-01-10T13:04:02;25.30;;;15.20;;
2011;SDS011;1009;51.436;6.972;2024-01-10T13:06:31;23.63;;;13.63;;
2011;SDS011;1009;51.436;6.972;2024-01-10T13:08:58;25.03;;;14.47;;
2011;SDS011;1009;51.436;6.972;2024-01-10T13:11:24;25.03;;;13.53;;
2011;SDS011;1009;51.436;6.972;2024-01-10T13:13:51;23.17;;;14.80;;
2011;SDS011;1009;51.436;6.972;2024-01-10T13:16:18;23.80;;;14.63;;
2011;SDS011;1009;51.436;6.972;2024-01-10T13:18:44;26.70;;;14.40;;
2011;SDS011;1009;51.436;6.972;2024-01-10T13:21:11;18.83;;;13.07;;
2011;SDS011;1009;51.436;6.972;2024-01-10T13:23:39;26.37;;;14.67;;
2011;SDS011;1009;51.436;6.972;2024-01-10T13:26:07;21.00;;;14.80;;
2011;SDS011;1009;51.436;6.972;2024-01-10T13:28:34;26.90;;;14.93;;
2011;SDS011;1009;51.436;6.972;2024-01-10T13:31:00;24.03;;;15.17;;
2011;SDS011;1009;51.436;6.972;2024-01-10T13:33:28;21.00;;;12.90;;
2011;SDS011;1009;51.436;6.972;2024-01-10T13:35:55;29.27;;;15.60;;
2011;SDS011;1009;51.436;6.972;2024-01-10T13:38:21;23.80;;;14.50;;
2011;SDS011;1009;51.436;6.972;2024-01-10T13:40:50;23.17;;;14.53;;
2011;SDS011;1009;51.436;6.972;2024-01-10T13:43:17;22.77;;;14.10;;
2011;SDS011;1009;51.436;6.972;2024-01-10T13:45:44;19.63;;;13.57;;
2011;SDS011;1009;51.436;6.972;2024-01-10T13:48:10;20.93;;;13.10;;
2011;SDS011;1009;51.436;6.972;2024-01-10T13:50:37;21.77;;;14.40;;
2011;SDS011;1009;51.436;6.972;2024-01-10T13:53:04;25.23;;;14.17;;
2011;SDS011;1009;51.436;6.972;2024-01-10T13:55:31;27.87;;;14.67;;
2011;SDS011;1009;51.436;6.972;2024-01-10T13:57:59;24.00;;;14.53;;
2011;SDS011;1009;51.436;6.972;2024-01-10T14:00:26;26.73;;;14.70;;
2011;SDS011;1009;51.436;6.972;2024-01-10T14:02:52;21.40;;;13.77;;
2011;SDS011;1009;51.436;6.972;2024-01-10T14:05:24;21.90;;;12.30;;
2011;SDS011;1009;51.436;6.972;2024-01-10T14:07:51;21.47;;;14.30;;
2011;SDS011;1009;51.436;6.972;2024-01-10T14:10:18;18.40;;;13.40;;
2011;SDS011;1009;51.436;6.972;2024-01-10T14:12:45;25.17;;;14.93;;
2011;SDS011;1009;51.436;6.972;2024-01-10T14:15:13;19.73;;;13.73;;
2011;SDS011;1009;51.436;6.972;2024-01-10T14:17:40;21.20;;;13.07;;
2011;SDS011;1009;51.436;6.972;2024-01-10T14:20:07;22.70;;;12.50;;
2011;SDS011;1009;51.436;6.972;2024-01-10T14:22:34;17.93;;;12.77;;
2011;SDS011;1009;51.436;6.972;2024-01-10T14:25:01;19.90;;;12.70;;
2011;SDS011;1009;51.436;6.972;2024-01-10T14:27:30;24.57;;;13.80;;
2011;SDS011;1009;51.436;6.972;2024-01-10T14:29:57;23.40;;;13.13;;
2011;SDS011;1009;51.436;6.972;2024-01-10T14:32:25;21.17;;;13.23;;
2011;SDS011;1009;51.436;6.972;2024-01-10T14:34:52;24.20;;;14.67;;
2011;SDS011;1009;51.436;6.972;2024-01-10T14:37:19;23.23;;;13.23;;
2011;SDS011;1009;51.436;6.972;2024-01-10T14:39:46;24.50;;;13.77;;
2011;SDS011;1009;51.436;6.972;2024-01-10T14:42:13;22.30;;;14.10;;
2011;SDS011;1009;51.436;6.972;2024-01-10T14:44:39;22.70;;;13.93;;
2011;SDS011;1009;51.436;6.972;2024-01-10T14:47:07;18.93;;;13.10;;
2011;SDS011;1009;51.436;6.972;2024-01-10T14:49:35;23.97;;;13.37;;
2011;SDS011;1009;51.436;6.972;2024-01-10T14:52:03;21.73;;;14.50;;
2011;SDS011;1009;51.436;6.972;2024-01-10T14:54:30;23.67;;;12.70;;
2011;SDS011;1009;51.436;6.972;2024-01-10T14:56:57;22.03;;;13.17;;
2011;SDS011;1009;51.436;6.972;2024-01-10T14:59:23;21.13;;;13.23;;
2011;SDS011;1009;51.436;6.972;2024-01-10T15:01:49;23.57;;;14.57;;
2011;SDS011;1009;51.436;6.972;2024-01-10T15:04:16;23.53;;;13.23;;
2011;SDS011;1009;51.436;6.972;2024-01-10T15:06:44;26.10;;;13.97;;
2011;SDS011;1009;51.436;6.972;2024-01-10T15:09:12;22.17;;;13.03;;
2011;SDS011;1009;51.436;6.972;2024-01-10T15:11:39;23.60;;;12.63;;
2011;SDS011;1009;51.436;6.972;2024-01-10T15:14:06;23.47;;;12.80;;